KCDC

Cedar City Regional Airport

Airport
ICAO code
KCDC
IATA Code
CDC
Summary
ICAO Region
NAM
ICAO Territory
Location

Iron County , Utah

Serving
Cedar City
Elevation
5622 ft
Coordinates
37° 42' 3" N , 113° 5' 55" W
KCC
Airport RE
Hot and High Operations
Airport WX
Mountain Waves
Metar
KCDC 180453Z AUTO 04015G23KT 10SM SCT044 12/M06 A2996 RMK AO2 PK WND 04029/0401 SLP074 T01221061

Description

Cedar City Regional Airport is a public use airport located 2 nm northwest of the central business district of Cedar City, in Iron County, Utah, USA.

 

Airport map

Aerial View

SKYbrary Partners:

Safety knowledge contributed by: